Portada
METAR-TAF:

METAR-TAF

Aeropuertos :

Pittsburgh, Pensilvania, Estados Unidos

Aeropuerto Internacional de Pittsburgh

latitud: 40-30-14N, longitud: 080-15-59W, altitud: 366 m

Observación

El informe se hizo hace 43 minutos, a las 14:51 UTC
Viento 3 kt del este-sureste
Temperatura 22°C
Humedad 78%
Presión 1022 hPa
Visibilidad: 16.1 km
Escasas nubes a una altura de 1000 ft

METAR: KPIT 201451Z 11003KT 10SM FEW010 22/18 A3017 RMK AO2 SLP219 T02170183 53014 $

Hora: 11:34 (15:34 UTC)

Pronóstico

El informe se hizo hace 55 minutos, a las 14:39 UTC
Pronóstico válido del 20 a las 15 UTC al 21 a las 18 UTC
Viento 3 kt con dirección variable
Visibilidad: 10 km
Cielo despejado

TAF: KPIT 201439Z 2015/2118 VRB03KT P6SM SKC

Observaciones y pronósticos meteorológicos de más de 4000 aeropuertos (mensajes METAR y TAF).

Los puntos amarillos y rojos representan las estaciones disponibles.

Ponga el ratón en el punto deseado para ver el nombre de la estación.

Haga clic para ver las observaciones y los pronósticos meteorológicos.

Para cambiar el mapa : haga clic en los botones verdes con una cruz de color negro para hacer un zoom, en el botón verde con un guión para alejar o en las flechas verdes para mapas adyacentes.


METAR-TAF: